createdAt,value
2023-02-27T16:03:35.620Z,60.78
2023-02-27T16:04:42.730Z,61.12
2023-02-27T16:05:51.885Z,61.27
2023-02-27T16:07:05.700Z,61.59
2023-02-27T16:08:17.576Z,61.46
2023-02-27T16:09:26.145Z,62.06
2023-02-27T16:10:37.214Z,61.87
2023-02-27T16:11:44.512Z,61.88
2023-02-27T16:12:51.392Z,62.09
2023-02-27T16:13:57.187Z,61.77
2023-02-27T16:15:29.290Z,62.38
2023-02-27T16:16:39.048Z,61.77
2023-02-27T16:17:57.135Z,62.30
2023-02-27T16:19:17.432Z,61.96
2023-02-27T16:20:41.314Z,62.28
2023-02-27T16:22:09.736Z,62.50
2023-02-27T16:23:28.096Z,62.16
2023-02-27T16:24:37.830Z,62.13
2023-02-27T16:26:07.477Z,62.40
2023-02-27T16:27:21.283Z,63.43
2023-02-27T16:28:28.396Z,62.71
2023-02-27T16:29:38.602Z,63.59
2023-02-27T16:30:44.101Z,62.94
2023-02-27T16:31:52.283Z,63.42
2023-02-27T16:33:03.048Z,63.23
2023-02-27T16:34:35.573Z,63.27
2023-02-27T16:35:50.931Z,63.28
2023-02-27T16:36:58.903Z,63.21
2023-02-27T16:38:05.112Z,63.21
2023-02-27T16:39:15.523Z,63.11
2023-02-27T16:40:30.105Z,62.98
2023-02-27T16:41:39.646Z,62.55
2023-02-27T16:42:45.107Z,62.62
2023-02-27T16:43:56.478Z,62.43
2023-02-27T16:45:03.056Z,62.34
2023-02-27T16:46:09.724Z,62.60
2023-02-27T16:47:16.328Z,62.41
2023-02-27T16:48:21.547Z,62.30
2023-02-27T16:49:33.584Z,62.90
2023-02-27T16:50:42.208Z,62.76
2023-02-27T16:51:48.878Z,62.55
2023-02-27T16:52:55.459Z,62.67
2023-02-27T16:54:03.480Z,62.47
2023-02-27T16:55:12.275Z,62.69
2023-02-27T16:56:23.680Z,62.79
2023-02-27T16:57:35.993Z,62.52
2023-02-27T16:58:41.445Z,62.75
2023-02-27T16:59:48.167Z,62.92
2023-02-27T17:00:53.400Z,63.22
2023-02-27T17:02:00.251Z,62.85
2023-02-27T17:03:06.879Z,62.99
2023-02-27T17:04:25.008Z,63.38
2023-02-27T17:05:33.986Z,63.44
2023-02-27T17:06:39.260Z,62.93
2023-02-27T17:07:46.257Z,63.20
2023-02-27T17:08:52.928Z,63.32
2023-02-27T17:10:00.172Z,63.27
2023-02-27T17:11:09.481Z,63.15
2023-02-27T17:12:18.948Z,63.03
2023-02-27T17:13:24.208Z,63.02
2023-02-27T17:14:30.887Z,62.78
2023-02-27T17:15:37.435Z,63.23
2023-02-27T17:16:44.042Z,63.03
2023-02-27T17:17:50.719Z,63.01
2023-02-27T17:18:57.308Z,63.14
2023-02-27T17:20:06.779Z,63.07
2023-02-27T17:21:13.716Z,63.62
2023-02-27T17:22:20.422Z,63.55
2023-02-27T17:23:27.426Z,63.55
2023-02-27T17:24:44.347Z,63.27
2023-02-27T17:25:51.299Z,63.29
2023-02-27T17:27:01.236Z,63.52
2023-02-27T17:28:08.565Z,63.49
2023-02-27T17:29:16.840Z,63.62
2023-02-27T17:30:23.873Z,63.94
2023-02-27T17:31:30.541Z,63.96
2023-02-27T17:32:38.224Z,64.31
2023-02-27T17:33:46.502Z,64.12
2023-02-27T17:34:55.509Z,64.34
2023-02-27T17:36:07.193Z,64.79
2023-02-27T17:37:18.087Z,64.72
2023-02-27T17:38:24.688Z,64.78
2023-02-27T17:39:30.008Z,64.98
2023-02-27T17:40:44.629Z,65.18
2023-02-27T17:41:55.059Z,65.29
2023-02-27T17:43:01.627Z,65.33
2023-02-27T17:44:08.351Z,65.13
2023-02-27T17:45:17.666Z,65.22
2023-02-27T17:46:27.003Z,65.22
2023-02-27T17:47:34.896Z,65.44
2023-02-27T17:48:43.156Z,65.32
2023-02-27T17:49:53.324Z,65.30
2023-02-27T17:51:01.297Z,65.53
2023-02-27T17:52:08.572Z,65.62
2023-02-27T17:53:17.245Z,65.89
2023-02-27T17:54:23.941Z,65.88
2023-02-27T17:55:29.175Z,65.84
2023-02-27T17:56:37.007Z,66.12
2023-02-27T17:57:43.947Z,65.94
2023-02-27T17:58:50.511Z,65.83
2023-02-27T17:59:57.091Z,65.79
2023-02-27T18:01:08.498Z,66.45
2023-02-27T18:02:15.277Z,66.28
2023-02-27T18:03:20.755Z,65.92
2023-02-27T18:04:27.888Z,66.08
2023-02-27T18:05:34.622Z,66.07
2023-02-27T18:06:45.388Z,66.08
2023-02-27T18:07:53.470Z,66.02
2023-02-27T18:09:07.570Z,66.19
2023-02-27T18:10:15.706Z,65.99
2023-02-27T18:11:23.897Z,66.08
2023-02-27T18:13:48.626Z,66.00
2023-02-27T18:14:55.272Z,66.04
2023-02-27T18:16:02.202Z,66.15
2023-02-27T18:17:13.266Z,66.19
2023-02-27T18:18:19.920Z,65.85
2023-02-27T18:19:26.749Z,66.00
2023-02-27T18:20:34.154Z,65.70
2023-02-27T18:21:41.724Z,65.75
2023-02-27T18:22:50.457Z,65.50
2023-02-27T18:23:57.972Z,65.32
2023-02-27T18:25:08.177Z,65.60
2023-02-27T18:26:29.334Z,65.57
2023-02-27T18:27:37.392Z,65.37
2023-02-27T18:28:44.165Z,65.25
2023-02-27T18:29:50.848Z,65.47
2023-02-27T18:30:57.742Z,65.62
2023-02-27T18:32:04.839Z,65.41
2023-02-27T18:33:12.559Z,65.41
2023-02-27T18:34:19.209Z,65.56
2023-02-27T18:35:24.671Z,65.54
2023-02-27T18:36:31.898Z,65.67
2023-02-27T18:37:38.809Z,65.51
2023-02-27T18:38:47.427Z,65.72
2023-02-27T18:39:54.128Z,65.70
2023-02-27T18:41:02.238Z,65.97
2023-02-27T18:42:12.788Z,65.62
2023-02-27T18:43:18.107Z,65.74
2023-02-27T18:44:24.763Z,66.02
2023-02-27T18:45:33.849Z,66.03
2023-02-27T18:46:49.310Z,65.85
2023-02-27T18:47:58.200Z,65.75
2023-02-27T18:49:04.981Z,65.56
2023-02-27T18:50:10.930Z,65.37
2023-02-27T18:51:24.711Z,65.44
2023-02-27T18:52:38.504Z,65.59
2023-02-27T18:53:46.740Z,65.56
2023-02-27T18:54:53.437Z,65.57
2023-02-27T18:56:04.859Z,65.71
2023-02-27T18:57:11.851Z,65.56
2023-02-27T18:58:18.680Z,65.50
2023-02-27T18:59:25.696Z,65.34
2023-02-27T19:00:32.367Z,65.44
2023-02-27T19:01:39.789Z,65.41
2023-02-27T19:02:46.471Z,65.54
2023-02-27T19:03:57.206Z,65.49
2023-02-27T19:05:07.185Z,65.65
2023-02-27T19:06:13.733Z,65.78
2023-02-27T19:07:21.180Z,65.81
2023-02-27T19:08:30.542Z,66.10
2023-02-27T19:09:37.131Z,65.82
2023-02-27T19:10:42.559Z,65.82
2023-02-27T19:11:51.162Z,65.85
2023-02-27T19:12:58.052Z,65.79
2023-02-27T19:14:13.972Z,65.78
2023-02-27T19:15:20.982Z,65.83
2023-02-27T19:16:26.757Z,65.84
2023-02-27T19:17:33.914Z,66.09
2023-02-27T19:18:40.510Z,66.32
2023-02-27T19:19:47.137Z,66.27
2023-02-27T19:20:57.368Z,66.17
2023-02-27T19:22:05.211Z,66.41
2023-02-27T19:23:10.464Z,66.26
2023-02-27T19:24:18.181Z,66.17
2023-02-27T19:25:24.014Z,66.06
2023-02-27T19:26:30.841Z,66.32
2023-02-27T19:27:47.405Z,66.18
2023-02-27T19:28:55.199Z,66.28
2023-02-27T19:30:02.841Z,66.03
2023-02-27T19:31:13.715Z,66.41
2023-02-27T19:32:19.060Z,65.92
2023-02-27T19:33:27.236Z,65.55
2023-02-27T19:34:39.896Z,65.60
2023-02-27T19:35:46.552Z,65.68
2023-02-27T19:36:53.177Z,65.58
2023-02-27T19:38:00.650Z,65.55
2023-02-27T19:39:06.867Z,65.75
2023-02-27T19:40:15.477Z,65.50
2023-02-27T19:41:22.745Z,65.64
2023-02-27T19:42:39.554Z,65.69
2023-02-27T19:43:57.578Z,65.56
2023-02-27T19:45:04.271Z,65.34
2023-02-27T19:46:13.103Z,65.56
2023-02-27T19:47:18.820Z,65.50
2023-02-27T23:10:40.946Z,60.01
2023-02-27T23:11:49.787Z,60.63
2023-02-27T23:12:55.178Z,60.63
2023-02-27T23:14:01.932Z,60.75
2023-02-27T23:15:08.002Z,60.93
2023-02-27T23:16:15.086Z,61.04
2023-02-27T23:17:20.596Z,60.93
2023-02-27T23:18:27.353Z,60.78
2023-02-27T23:19:36.924Z,60.58
2023-02-27T23:20:45.458Z,60.63
2023-02-27T23:21:53.993Z,60.50
2023-02-27T23:22:59.404Z,60.17
2023-02-27T23:24:08.360Z,60.50
2023-02-27T23:25:13.762Z,60.50
2023-02-27T23:26:20.447Z,60.60
2023-02-27T23:27:27.613Z,60.53
2023-02-27T23:28:37.184Z,60.60
2023-02-27T23:29:46.032Z,60.59
2023-02-27T23:30:52.255Z,60.40
2023-02-27T23:31:59.058Z,60.35
2023-02-27T23:33:10.882Z,60.46
2023-02-27T23:34:17.992Z,60.18
2023-02-27T23:35:25.613Z,60.11
2023-02-27T23:36:34.278Z,60.10
2023-02-27T23:37:40.406Z,59.83
2023-02-27T23:38:48.982Z,60.07
2023-02-27T23:39:56.292Z,59.80
2023-02-27T23:41:08.987Z,59.42
2023-02-27T23:42:32.162Z,59.63
2023-02-27T23:43:57.841Z,58.96
2023-02-27T23:45:13.920Z,59.27
2023-02-27T23:46:19.394Z,59.18
2023-02-27T23:47:42.550Z,59.09
2023-02-27T23:48:49.354Z,59.06
2023-02-27T23:49:55.419Z,59.01
2023-02-27T23:51:07.095Z,59.02
2023-02-27T23:52:16.638Z,59.05
2023-02-27T23:53:23.488Z,59.12
2023-02-27T23:54:32.176Z,59.02
2023-02-27T23:55:40.438Z,58.78
2023-02-27T23:57:56.917Z,58.76
2023-02-27T23:59:08.075Z,58.98
